Time;durP1;ratioP1;P1;durP2;ratioP2;P2;SDS_P1;SDS_P2;PMS_P1;PMS_P2;Temp;Humidity;BMP_temperature;BMP_pressure;BME280_temperature;BME280_humidity;BME280_pressure;Samples;Min_cycle;Max_cycle;Signal;HPM_P1;HPM_P2
2023/03/06 00:02:12;;;;;;;30.13;24.87;;;7.20;43.60;;;;;;20629;6810;306534;-73
2023/03/06 00:04:38;;;;;;;26.87;21.03;;;7.30;43.50;;;;;;20837;6810;117273;-73
2023/03/06 00:07:03;;;;;;;27.73;22.83;;;7.00;43.40;;;;;;20590;6813;278685;-73
2023/03/06 00:09:29;;;;;;;30.10;24.97;;;6.90;43.90;;;;;;20581;6813;291404;-73
2023/03/06 00:11:55;;;;;;;25.62;20.55;;;7.00;43.80;;;;;;20816;6813;118159;-73
2023/03/06 00:14:20;;;;;;;27.45;20.77;;;6.80;43.80;;;;;;20761;6829;117407;-73
2023/03/06 00:16:46;;;;;;;28.48;20.62;;;6.50;44.20;;;;;;20762;6829;119132;-73
2023/03/06 00:19:11;;;;;;;28.23;21.02;;;6.10;44.50;;;;;;20814;6814;129178;-73
2023/03/06 00:21:37;;;;;;;31.52;25.23;;;5.90;44.90;;;;;;20616;6813;310825;-73
2023/03/06 00:24:02;;;;;;;31.27;25.27;;;6.00;45.60;;;;;;20564;6829;282456;-73
2023/03/06 00:26:28;;;;;;;29.83;22.20;;;6.30;45.50;;;;;;20830;6814;117854;-73
2023/03/06 00:28:54;;;;;;;29.75;21.58;;;6.20;45.00;;;;;;20817;6814;117669;-72
2023/03/06 00:31:19;;;;;;;30.07;24.67;;;6.00;45.20;;;;;;20535;6829;337079;-73
2023/03/06 00:33:45;;;;;;;27.23;20.58;;;6.10;45.70;;;;;;20821;6814;117424;-73
2023/03/06 00:36:10;;;;;;;30.37;24.10;;;6.00;45.40;;;;;;20549;6829;315706;-73
2023/03/06 00:38:36;;;;;;;27.67;24.33;;;6.10;45.60;;;;;;20613;6814;298820;-73
2023/03/06 00:41:05;;;;;;;26.07;21.03;;;6.40;45.40;;;;;;20830;6814;117818;-73
2023/03/06 00:43:30;;;;;;;30.80;24.65;;;6.30;45.00;;;;;;20547;6829;286312;-73
2023/03/06 00:45:57;;;;;;;28.20;23.52;;;6.30;45.30;;;;;;20597;6810;305629;-73
2023/03/06 00:48:22;;;;;;;29.17;20.37;;;6.60;45.20;;;;;;20842;6810;117303;-73
2023/03/06 00:50:48;;;;;;;28.30;24.37;;;6.40;44.80;;;;;;20615;6813;277126;-73
2023/03/06 00:53:14;;;;;;;27.77;24.23;;;6.50;45.80;;;;;;20587;6813;307245;-73
2023/03/06 00:55:39;;;;;;;26.63;20.83;;;6.60;44.90;;;;;;20828;6813;117819;-73
2023/03/06 00:58:05;;;;;;;31.10;24.75;;;6.50;44.80;;;;;;20573;6814;307800;-73
2023/03/06 01:00:30;;;;;;;29.77;24.75;;;6.50;45.10;;;;;;20601;6814;340147;-73
2023/03/06 01:02:56;;;;;;;29.23;24.30;;;6.70;44.90;;;;;;20558;6829;311559;-73
2023/03/06 01:05:22;;;;;;;28.53;20.27;;;6.80;44.60;;;;;;20808;6814;117421;-73
2023/03/06 01:07:47;;;;;;;29.52;24.10;;;6.60;44.40;;;;;;20613;6814;306999;-73
2023/03/06 01:10:14;;;;;;;29.37;20.67;;;6.60;44.90;;;;;;20762;6829;118322;-73
2023/03/06 01:12:39;;;;;;;22.20;17.73;;;6.50;44.90;;;;;;20776;6814;117795;-73
2023/03/06 01:15:05;;;;;;;28.50;19.15;;;6.20;45.30;;;;;;20775;6814;117307;-72
2023/03/06 01:17:31;;;;;;;27.10;19.60;;;5.90;45.50;;;;;;20724;6829;120719;-73
2023/03/06 01:19:56;;;;;;;28.57;19.93;;;5.70;45.70;;;;;;20776;6814;117643;-72
2023/03/06 01:22:22;;;;;;;29.10;19.15;;;5.60;46.00;;;;;;20772;6814;117292;-73
2023/03/06 01:24:47;;;;;;;28.33;20.40;;;5.40;46.10;;;;;;20794;6810;120437;-72
2023/03/06 01:27:13;;;;;;;30.97;23.00;;;5.30;46.20;;;;;;20589;6813;281344;-73
2023/03/06 01:29:39;;;;;;;28.42;23.85;;;5.50;47.00;;;;;;20627;6813;306045;-73
2023/03/06 01:32:04;;;;;;;29.17;24.07;;;5.90;46.70;;;;;;20629;6811;277194;-73
2023/03/06 01:34:30;;;;;;;28.30;22.87;;;6.30;46.80;;;;;;20619;6814;307002;-73
2023/03/06 01:36:55;;;;;;;28.50;23.23;;;6.50;45.60;;;;;;20620;6814;308136;-73
2023/03/06 01:39:21;;;;;;;26.25;22.52;;;6.70;45.20;;;;;;20556;6829;278190;-73
2023/03/06 01:41:47;;;;;;;25.58;22.08;;;6.80;44.50;;;;;;20614;6814;306510;-73
2023/03/06 01:44:13;;;;;;;28.00;18.70;;;6.90;44.00;;;;;;20824;6814;117510;-73
2023/03/06 01:46:41;;;;;;;23.12;19.95;;;6.70;44.00;;;;;;20564;6829;337134;-72
2023/03/06 01:49:17;;;;;;;24.60;16.83;;;6.70;44.10;;;;;;20789;6814;118354;-73
2023/03/06 01:51:46;;;;;;;20.27;17.83;;;6.50;44.10;;;;;;20606;6814;310343;-73
2023/03/06 01:54:11;;;;;;;20.27;17.62;;;6.50;44.00;;;;;;20545;6829;337590;-73
2023/03/06 01:56:37;;;;;;;18.47;14.83;;;6.70;43.30;;;;;;20777;6814;120558;-73
2023/03/06 01:59:03;;;;;;;17.83;13.60;;;6.50;43.20;;;;;;20826;6814;117818;-73
2023/03/06 02:01:28;;;;;;;18.52;16.60;;;6.30;43.70;;;;;;20590;6829;279078;-72
2023/03/06 02:03:54;;;;;;;15.13;13.53;;;6.30;43.70;;;;;;20777;6829;117444;-72
2023/03/06 02:06:20;;;;;;;18.35;16.12;;;6.20;43.60;;;;;;20544;6829;337731;-72
2023/03/06 02:08:45;;;;;;;21.23;17.20;;;6.30;43.60;;;;;;20592;6821;307069;-73
2023/03/06 02:11:10;;;;;;;16.73;14.13;;;6.50;43.10;;;;;;20771;6821;119598;-73
2023/03/06 02:13:36;;;;;;;18.57;13.73;;;6.40;43.00;;;;;;20776;6821;118729;-73
2023/03/06 02:16:01;;;;;;;18.37;16.23;;;6.10;43.30;;;;;;20591;6821;279879;-73
2023/03/06 02:18:28;;;;;;;18.98;16.95;;;6.20;43.50;;;;;;20595;6821;307663;-73
2023/03/06 02:20:54;;;;;;;20.08;17.42;;;6.40;43.20;;;;;;20591;6821;278110;-73
2023/03/06 02:23:46;;;;;;;19.00;17.00;;;6.70;42.90;;;;;;20557;6821;335405;-73
2023/03/06 02:26:11;;;;;;;18.90;15.40;;;6.80;42.50;;;;;;20792;6821;118579;-73
2023/03/06 02:28:38;;;;;;;20.70;18.37;;;6.60;42.60;;;;;;20589;6821;279323;-73
2023/03/06 02:31:02;;;;;;;18.15;15.13;;;6.50;43.20;;;;;;20793;6821;117587;-73
2023/03/06 02:33:28;;;;;;;21.60;18.63;;;6.40;43.30;;;;;;20566;6821;337031;-73
2023/03/06 02:35:53;;;;;;;21.10;17.10;;;6.40;43.60;;;;;;20803;6821;118247;-73
2023/03/06 02:38:19;;;;;;;24.30;15.25;;;6.30;43.50;;;;;;20792;6821;118619;-73
2023/03/06 02:40:45;;;;;;;19.93;14.63;;;6.10;43.80;;;;;;20803;6821;117561;-73
2023/03/06 02:43:10;;;;;;;22.42;18.98;;;5.80;44.10;;;;;;20561;6821;342984;-74
2023/03/06 02:45:36;;;;;;;24.23;19.77;;;5.90;44.60;;;;;;20592;6819;339941;-73
2023/03/06 02:48:01;;;;;;;19.92;15.50;;;6.20;44.10;;;;;;20808;6820;117254;-73
2023/03/06 02:50:27;;;;;;;22.15;15.68;;;6.20;43.90;;;;;;20850;6820;116424;-73
2023/03/06 02:52:54;;;;;;;22.73;15.40;;;5.90;44.10;;;;;;20802;6820;117336;-73
2023/03/06 02:55:20;;;;;;;22.35;19.12;;;5.70;44.50;;;;;;20584;6821;306692;-74
2023/03/06 02:57:46;;;;;;;23.83;19.80;;;5.80;45.00;;;;;;20593;6821;324016;-73
2023/03/06 03:00:12;;;;;;;22.37;16.53;;;6.10;44.80;;;;;;20808;6821;117654;-73
2023/03/06 03:02:37;;;;;;;21.83;16.00;;;6.00;44.50;;;;;;20808;6821;118189;-73
2023/03/06 03:05:03;;;;;;;22.67;19.62;;;5.80;44.70;;;;;;20594;6821;307611;-73
2023/03/06 03:07:29;;;;;;;22.73;16.67;;;5.90;45.00;;;;;;20788;6821;121677;-73
2023/03/06 03:09:54;;;;;;;22.53;16.43;;;5.90;44.90;;;;;;20806;6821;121551;-73
2023/03/06 03:12:21;;;;;;;22.87;19.40;;;5.70;45.00;;;;;;20599;6821;307598;-73
2023/03/06 03:14:45;;;;;;;23.10;19.00;;;5.70;45.10;;;;;;20590;6821;323784;-73
2023/03/06 03:17:11;;;;;;;21.30;19.00;;;6.00;44.80;;;;;;20582;6821;278093;-73
2023/03/06 03:19:36;;;;;;;22.63;15.73;;;6.30;44.30;;;;;;20805;6821;117720;-73
2023/03/06 03:22:02;;;;;;;20.20;15.30;;;6.20;44.20;;;;;;20801;6821;117510;-73
2023/03/06 03:24:27;;;;;;;19.73;15.47;;;5.90;44.50;;;;;;20801;6821;117534;-73
2023/03/06 03:26:53;;;;;;;19.90;14.70;;;5.70;44.80;;;;;;20807;6821;117413;-73
2023/03/06 03:29:20;;;;;;;19.98;15.07;;;5.40;45.00;;;;;;20779;6821;118642;-73
2023/03/06 03:31:45;;;;;;;18.87;14.47;;;5.30;45.40;;;;;;20806;6821;120520;-73
2023/03/06 03:34:11;;;;;;;16.98;14.43;;;5.20;45.60;;;;;;20802;6821;117879;-73
2023/03/06 03:36:36;;;;;;;20.73;15.45;;;5.00;45.60;;;;;;20798;6821;118682;-73
2023/03/06 03:39:03;;;;;;;18.40;14.30;;;4.90;45.70;;;;;;20802;6821;117848;-73
2023/03/06 03:41:30;;;;;;;19.93;13.93;;;4.90;45.90;;;;;;20784;6821;117423;-73
2023/03/06 03:43:56;;;;;;;22.23;18.90;;;4.80;46.00;;;;;;20584;6821;308493;-73
2023/03/06 03:46:21;;;;;;;22.40;19.50;;;5.00;46.40;;;;;;20589;6821;308532;-73
2023/03/06 03:48:47;;;;;;;19.20;15.53;;;5.40;46.30;;;;;;20801;6821;117359;-73
2023/03/06 03:51:15;;;;;;;20.07;14.53;;;5.50;45.90;;;;;;20784;6821;117544;-74
2023/03/06 03:53:38;;;;;;;18.27;13.80;;;5.30;45.90;;;;;;20793;6821;118722;-73
2023/03/06 03:56:04;;;;;;;18.00;14.40;;;5.20;46.10;;;;;;20804;6819;124519;-73
2023/03/06 03:58:29;;;;;;;16.63;13.70;;;5.10;46.20;;;;;;20803;6820;117455;-73
2023/03/06 04:00:55;;;;;;;16.67;13.57;;;4.90;46.30;;;;;;20797;6820;121165;-73
2023/03/06 04:03:20;;;;;;;17.57;13.83;;;4.80;46.40;;;;;;20782;6820;117447;-73
2023/03/06 04:05:46;;;;;;;20.33;14.20;;;4.80;46.60;;;;;;20806;6820;117800;-73
2023/03/06 04:08:11;;;;;;;21.07;14.23;;;4.70;46.60;;;;;;20806;6821;117401;-73
2023/03/06 04:10:38;;;;;;;19.45;17.02;;;4.70;46.70;;;;;;20552;6821;310145;-73
2023/03/06 04:13:02;;;;;;;17.97;15.03;;;4.90;47.20;;;;;;20795;6821;117412;-72
2023/03/06 04:15:28;;;;;;;18.92;16.92;;;5.00;46.80;;;;;;20543;6821;278726;-71
2023/03/06 04:17:54;;;;;;;17.02;13.50;;;5.20;46.70;;;;;;20790;6821;117988;-72
2023/03/06 04:20:19;;;;;;;17.77;15.77;;;5.30;46.30;;;;;;20590;6821;339952;-72
2023/03/06 04:22:45;;;;;;;18.10;16.30;;;5.50;46.10;;;;;;20578;6821;296150;-71
2023/03/06 04:25:10;;;;;;;17.43;14.03;;;5.80;45.50;;;;;;20783;6821;118386;-72
2023/03/06 04:27:37;;;;;;;16.90;15.10;;;5.80;45.20;;;;;;20591;6821;309037;-71
2023/03/06 04:30:03;;;;;;;17.07;15.30;;;5.80;45.10;;;;;;20589;6821;335995;-73
2023/03/06 04:32:29;;;;;;;16.83;12.70;;;6.10;44.60;;;;;;20793;6821;117570;-73
2023/03/06 04:34:54;;;;;;;16.37;14.60;;;6.00;44.50;;;;;;20592;6821;280689;-73
2023/03/06 04:37:21;;;;;;;16.90;15.30;;;6.00;44.20;;;;;;20583;6821;288803;-72
2023/03/06 04:39:47;;;;;;;17.90;15.57;;;6.30;43.80;;;;;;20601;6821;310027;-73
2023/03/06 04:42:13;;;;;;;16.83;15.13;;;6.40;43.70;;;;;;20598;6821;279871;-73
2023/03/06 04:44:38;;;;;;;17.87;15.98;;;6.60;43.50;;;;;;20591;6821;278961;-73
2023/03/06 04:47:07;;;;;;;15.47;13.90;;;6.70;43.30;;;;;;20792;6821;117322;-72
2023/03/06 04:49:33;;;;;;;16.73;15.02;;;6.50;43.30;;;;;;20592;6821;336727;-74
2023/03/06 04:51:58;;;;;;;14.57;12.20;;;6.40;43.30;;;;;;20811;6821;116677;-73
2023/03/06 04:54:25;;;;;;;20.80;13.87;;;6.20;43.40;;;;;;20812;6821;117535;-74
2023/03/06 04:56:51;;;;;;;17.97;13.47;;;5.90;43.80;;;;;;20804;6821;117682;-74
2023/03/06 04:59:16;;;;;;;15.33;12.90;;;5.70;44.30;;;;;;20797;6821;118275;-72
2023/03/06 05:01:42;;;;;;;16.20;12.50;;;5.50;44.70;;;;;;20813;6821;117652;-72
2023/03/06 05:04:07;;;;;;;17.00;15.20;;;5.30;45.60;;;;;;20585;6821;308193;-72
2023/03/06 05:06:33;;;;;;;15.47;13.13;;;5.50;45.50;;;;;;20813;6819;117879;-73
2023/03/06 05:08:58;;;;;;;17.30;14.68;;;5.50;45.20;;;;;;20600;6820;278634;-73
2023/03/06 05:11:24;;;;;;;13.93;12.35;;;5.60;45.00;;;;;;20800;6820;121440;-72
2023/03/06 05:13:50;;;;;;;16.10;14.50;;;5.60;44.80;;;;;;20596;6820;337116;-72
2023/03/06 05:16:15;;;;;;;15.07;12.85;;;5.80;44.70;;;;;;20800;6820;117765;-72
2023/03/06 05:18:41;;;;;;;14.57;11.90;;;5.80;44.60;;;;;;20815;6821;117549;-72
2023/03/06 05:21:06;;;;;;;12.65;11.32;;;5.60;44.80;;;;;;20788;6821;117991;-75
2023/03/06 05:23:32;;;;;;;14.53;11.37;;;5.40;45.00;;;;;;20810;6821;117665;-72
2023/03/06 05:25:57;;;;;;;16.23;14.60;;;5.20;45.10;;;;;;20596;6821;306201;-72
2023/03/06 05:28:24;;;;;;;14.50;12.35;;;5.40;45.30;;;;;;20816;6821;121314;-72
2023/03/06 05:30:48;;;;;;;15.90;14.30;;;5.40;45.00;;;;;;20586;6821;337499;-72
2023/03/06 05:33:14;;;;;;;14.30;12.63;;;5.60;45.00;;;;;;20746;6836;117788;-72
2023/03/06 05:35:45;;;;;;;15.63;12.60;;;5.60;44.80;;;;;;20786;6824;121867;-76
2023/03/06 05:38:10;;;;;;;16.00;12.03;;;5.40;44.90;;;;;;20812;6821;118351;-75
2023/03/06 05:40:35;;;;;;;13.13;11.77;;;5.20;45.00;;;;;;20820;6821;124241;-74
2023/03/06 05:43:01;;;;;;;13.37;11.93;;;5.10;45.30;;;;;;20799;6821;117286;-77
2023/03/06 05:45:27;;;;;;;16.98;15.25;;;5.00;45.40;;;;;;20585;6821;278120;-74
2023/03/06 05:47:55;;;;;;;18.42;16.52;;;5.10;45.80;;;;;;20593;6821;306550;-75
2023/03/06 05:50:20;;;;;;;15.33;13.00;;;5.50;45.70;;;;;;20812;6821;117486;-74
2023/03/06 05:52:46;;;;;;;17.55;15.73;;;5.50;45.30;;;;;;20583;6821;277771;-72
2023/03/06 05:55:12;;;;;;;16.15;14.00;;;5.60;45.60;;;;;;20791;6821;117975;-72
2023/03/06 05:57:38;;;;;;;19.35;16.98;;;5.50;45.40;;;;;;20594;6821;337538;-73
2023/03/06 06:00:04;;;;;;;20.35;17.37;;;5.60;45.50;;;;;;20548;6836;301128;-72
2023/03/06 06:02:31;;;;;;;19.40;17.25;;;5.90;45.40;;;;;;20597;6821;308085;-75
2023/03/06 06:04:57;;;;;;;20.83;17.77;;;6.10;45.20;;;;;;20591;6821;311433;-76
2023/03/06 06:07:22;;;;;;;18.83;15.47;;;6.30;45.10;;;;;;20787;6821;118321;-74
2023/03/06 06:09:48;;;;;;;19.45;14.30;;;6.10;45.00;;;;;;20814;6821;117625;-76
2023/03/06 06:12:13;;;;;;;18.30;14.77;;;5.80;45.40;;;;;;20793;6821;117666;-73
2023/03/06 06:14:39;;;;;;;18.77;14.15;;;5.50;45.80;;;;;;20810;6821;123684;-74
2023/03/06 06:17:05;;;;;;;21.47;13.37;;;5.30;46.10;;;;;;20787;6821;119757;-76
2023/03/06 06:19:30;;;;;;;16.37;13.65;;;5.10;46.40;;;;;;20791;6819;117114;-74
2023/03/06 06:22:01;;;;;;;17.57;14.03;;;5.00;46.50;;;;;;20812;6820;121080;-74
2023/03/06 06:24:24;;;;;;;20.13;17.57;;;4.90;46.60;;;;;;20588;6820;314951;-73
2023/03/06 06:26:49;;;;;;;19.52;17.42;;;5.10;47.20;;;;;;20597;6820;312447;-73
2023/03/06 06:29:15;;;;;;;19.17;14.90;;;5.40;47.10;;;;;;20778;6820;117672;-74
2023/03/06 06:31:40;;;;;;;19.83;14.37;;;5.50;46.40;;;;;;20809;6821;117401;-74
2023/03/06 06:34:09;;;;;;;19.77;17.67;;;5.30;46.50;;;;;;20580;6821;278861;-78
2023/03/06 06:36:34;;;;;;;17.57;14.37;;;5.40;46.90;;;;;;20804;6821;117249;-74
2023/03/06 06:39:03;;;;;;;21.20;17.12;;;5.40;46.60;;;;;;20600;6821;280934;-76
2023/03/06 06:41:29;;;;;;;20.30;15.13;;;5.50;46.80;;;;;;20785;6806;117435;-76
2023/03/06 06:43:54;;;;;;;18.77;16.37;;;5.50;46.40;;;;;;20641;6806;277995;-75
2023/03/06 06:46:20;;;;;;;19.70;14.77;;;5.60;46.50;;;;;;20857;6806;118793;-72
2023/03/06 06:48:49;;;;;;;19.83;16.90;;;5.60;46.30;;;;;;20645;6806;311324;-72
2023/03/06 06:51:14;;;;;;;17.63;14.33;;;5.70;46.40;;;;;;20837;6806;117862;-72
2023/03/06 06:53:40;;;;;;;18.92;16.92;;;5.70;46.20;;;;;;20633;6806;277344;-72
2023/03/06 06:56:05;;;;;;;17.27;14.13;;;5.80;46.30;;;;;;20850;6806;123544;-73
2023/03/06 06:58:31;;;;;;;16.23;13.87;;;5.70;46.00;;;;;;20844;6806;121245;-73
2023/03/06 07:00:58;;;;;;;17.43;15.63;;;5.50;46.10;;;;;;20642;6806;306803;-72
2023/03/06 07:03:23;;;;;;;18.15;16.15;;;5.60;46.20;;;;;;20547;6806;303070;-71
2023/03/06 07:05:56;;;;;;;16.27;13.43;;;5.90;45.60;;;;;;20859;6806;121952;-73
2023/03/06 07:08:22;;;;;;;17.90;15.90;;;5.90;45.40;;;;;;20641;6806;277655;-72
2023/03/06 07:10:48;;;;;;;20.27;17.40;;;5.90;45.50;;;;;;20642;6806;306823;-72
2023/03/06 07:13:13;;;;;;;19.40;17.40;;;6.10;45.10;;;;;;20621;6806;307507;-72
2023/03/06 07:15:39;;;;;;;19.05;17.08;;;6.30;44.70;;;;;;20644;6806;307093;-72
2023/03/06 07:18:04;;;;;;;18.43;16.57;;;6.50;44.60;;;;;;20644;6806;278065;-73
2023/03/06 07:20:30;;;;;;;18.70;16.70;;;6.60;44.30;;;;;;20630;6806;311778;-72
2023/03/06 07:22:55;;;;;;;19.70;16.60;;;6.70;44.00;;;;;;20642;6806;278424;-72
2023/03/06 07:25:21;;;;;;;18.77;16.87;;;6.80;43.70;;;;;;20623;6806;307121;-71
2023/03/06 07:27:47;;;;;;;17.37;15.57;;;6.90;43.70;;;;;;20640;6806;315137;-73
2023/03/06 07:30:12;;;;;;;17.85;16.05;;;6.90;43.50;;;;;;20633;6804;308025;-73
2023/03/06 07:32:38;;;;;;;19.00;16.98;;;7.00;43.40;;;;;;20643;6805;316383;-73
2023/03/06 07:35:04;;;;;;;19.00;13.90;;;7.10;43.30;;;;;;20838;6805;117725;-72
2023/03/06 07:37:29;;;;;;;17.85;16.05;;;6.90;43.50;;;;;;20608;6806;340287;-72
2023/03/06 07:39:55;;;;;;;16.23;14.03;;;6.80;44.10;;;;;;20858;6806;120550;-73
2023/03/06 07:42:20;;;;;;;15.27;13.07;;;6.70;44.10;;;;;;20851;6806;117226;-73
2023/03/06 07:44:46;;;;;;;17.00;13.80;;;6.40;45.00;;;;;;20850;6806;123502;-72
2023/03/06 07:47:11;;;;;;;16.27;14.63;;;6.10;44.60;;;;;;20840;6806;117743;-73
2023/03/06 07:49:37;;;;;;;18.45;15.98;;;5.90;44.90;;;;;;20641;6806;278055;-73
2023/03/06 07:52:02;;;;;;;19.30;17.27;;;6.10;45.10;;;;;;20642;6806;307470;-72
2023/03/06 07:54:29;;;;;;;18.00;15.90;;;6.40;44.80;;;;;;20645;6806;277618;-73
2023/03/06 07:56:54;;;;;;;18.13;14.43;;;6.60;44.30;;;;;;20848;6806;117857;-73
2023/03/06 07:59:20;;;;;;;20.27;18.27;;;6.50;44.10;;;;;;20625;6806;310842;-71
2023/03/06 08:01:46;;;;;;;17.77;15.93;;;6.60;44.40;;;;;;20856;6806;118059;-72
2023/03/06 08:04:11;;;;;;;14.18;12.68;;;6.50;44.30;;;;;;20853;6806;117429;-72
2023/03/06 08:06:37;;;;;;;17.37;15.63;;;6.30;44.60;;;;;;20640;6806;277345;-72
2023/03/06 08:09:02;;;;;;;18.20;15.60;;;6.40;44.70;;;;;;20647;6806;307399;-72
2023/03/06 08:11:28;;;;;;;18.30;16.53;;;6.70;45.10;;;;;;20623;6806;308211;-72
2023/03/06 08:13:54;;;;;;;21.07;18.80;;;6.90;43.90;;;;;;20642;6806;277747;-72
2023/03/06 08:16:19;;;;;;;19.60;17.70;;;7.10;43.40;;;;;;20637;6806;336613;-73
2023/03/06 08:18:45;;;;;;;20.43;16.10;;;7.30;43.10;;;;;;20855;6806;117355;-72
2023/03/06 08:21:10;;;;;;;16.93;14.37;;;7.20;43.30;;;;;;20837;6806;117491;-72
2023/03/06 08:23:36;;;;;;;19.47;17.47;;;6.90;43.70;;;;;;20634;6806;307535;-72
2023/03/06 08:26:01;;;;;;;17.58;14.95;;;6.90;43.90;;;;;;20643;6806;280669;-72
2023/03/06 08:28:27;;;;;;;18.00;15.77;;;7.20;43.50;;;;;;20629;6806;277373;-72
2023/03/06 08:30:52;;;;;;;16.10;13.53;;;7.40;43.30;;;;;;20854;6806;122054;-72
2023/03/06 08:33:18;;;;;;;19.00;13.43;;;7.40;43.30;;;;;;20836;6806;117325;-72
2023/03/06 08:35:44;;;;;;;17.12;15.38;;;7.10;43.60;;;;;;20641;6806;330848;-73
2023/03/06 08:38:09;;;;;;;17.37;15.50;;;7.20;43.70;;;;;;20643;6806;304320;-72
2023/03/06 08:40:35;;;;;;;18.07;13.83;;;7.50;43.40;;;;;;20857;6806;118007;-72
2023/03/06 08:43:00;;;;;;;18.07;15.73;;;7.50;43.20;;;;;;20643;6804;287830;-72
2023/03/06 08:45:26;;;;;;;18.40;16.60;;;7.50;42.90;;;;;;20626;6805;463404;-72
2023/03/06 08:47:51;;;;;;;15.37;13.77;;;7.80;42.90;;;;;;20857;6806;125356;-72
2023/03/06 08:50:17;;;;;;;29.57;22.30;;;7.80;42.90;;;;;;20855;6806;117852;-72
2023/03/06 08:52:42;;;;;;;18.77;13.67;;;7.60;43.20;;;;;;20853;6806;117799;-72
2023/03/06 08:55:08;;;;;;;13.02;11.77;;;7.50;43.60;;;;;;20838;6806;145477;-72
2023/03/06 08:57:34;;;;;;;16.63;15.03;;;7.40;43.90;;;;;;20641;6806;326525;-72
2023/03/06 08:59:59;;;;;;;18.73;15.43;;;7.60;43.70;;;;;;20646;6806;277146;-72
2023/03/06 09:02:25;;;;;;;19.33;16.00;;;8.00;42.90;;;;;;20861;6806;117241;-73
2023/03/06 09:04:50;;;;;;;16.73;14.93;;;8.20;42.70;;;;;;20649;6806;277113;-74
2023/03/06 09:07:16;;;;;;;14.43;13.03;;;8.30;41.70;;;;;;20626;6806;307954;-73
2023/03/06 09:09:41;;;;;;;11.73;10.63;;;8.60;40.40;;;;;;20856;6806;117908;-73
2023/03/06 09:12:07;;;;;;;12.93;11.43;;;8.60;40.40;;;;;;20851;6806;117999;-73
2023/03/06 09:14:32;;;;;;;15.98;13.68;;;8.40;40.90;;;;;;20645;6806;324588;-73
2023/03/06 09:16:58;;;;;;;13.00;11.03;;;8.50;40.70;;;;;;20858;6806;123011;-73
2023/03/06 09:19:24;;;;;;;14.70;13.23;;;8.50;40.60;;;;;;20628;6806;309553;-73
2023/03/06 09:21:49;;;;;;;14.67;13.33;;;8.60;39.90;;;;;;20641;6806;308049;-72
2023/03/06 09:24:15;;;;;;;12.43;11.23;;;8.80;39.10;;;;;;20857;6806;117442;-74
2023/03/06 09:26:40;;;;;;;11.00;10.00;;;8.80;39.30;;;;;;20859;6806;117862;-73
2023/03/06 09:29:06;;;;;;;9.60;8.60;;;8.50;39.60;;;;;;20851;6806;118385;-74
2023/03/06 09:31:31;;;;;;;11.70;10.50;;;8.20;40.00;;;;;;20856;6806;123508;-73
2023/03/06 09:33:57;;;;;;;12.93;11.63;;;7.90;40.20;;;;;;20644;6806;285732;-73
2023/03/06 09:36:22;;;;;;;14.20;12.80;;;8.00;39.90;;;;;;20639;6806;307507;-74
2023/03/06 09:38:48;;;;;;;14.03;12.50;;;8.20;39.30;;;;;;20854;6806;117274;-73
2023/03/06 09:41:25;;;;;;;12.07;10.97;;;8.20;39.40;;;;;;20830;6806;117521;-73
2023/03/06 09:43:49;;;;;;;11.20;9.33;;;7.90;39.90;;;;;;20848;6806;117382;-73
2023/03/06 09:46:18;;;;;;;9.43;8.60;;;7.70;41.00;;;;;;20852;6806;117502;-73
2023/03/06 09:49:14;;;;;;;11.47;10.47;;;7.60;40.70;;;;;;20636;6806;278896;-73
2023/03/06 09:51:46;;;;;;;10.30;9.23;;;7.70;40.50;;;;;;20835;6806;117645;-73
2023/03/06 09:54:12;;;;;;;10.87;9.80;;;7.60;40.40;;;;;;20859;6804;117073;-74
2023/03/06 09:56:37;;;;;;;12.30;11.10;;;7.50;40.80;;;;;;20633;6805;306778;-73
2023/03/06 09:59:12;;;;;;;14.63;13.23;;;7.60;40.90;;;;;;20637;6805;306688;-72
2023/03/06 10:01:38;;;;;;;11.27;10.20;;;7.90;40.50;;;;;;20843;6806;122342;-73
2023/03/06 10:04:10;;;;;;;13.67;12.37;;;8.00;40.50;;;;;;20634;6806;307086;-73
2023/03/06 10:06:36;;;;;;;10.93;9.93;;;8.10;40.10;;;;;;20795;6806;117698;-73
2023/03/06 10:09:04;;;;;;;11.10;10.00;;;8.10;40.10;;;;;;20823;6806;117053;-72
2023/03/06 10:11:30;;;;;;;10.43;9.33;;;7.90;40.40;;;;;;20796;6806;120111;-73
2023/03/06 10:14:05;;;;;;;11.13;10.13;;;7.70;40.70;;;;;;20843;6806;117176;-73
2023/03/06 10:16:31;;;;;;;13.23;12.03;;;7.60;40.90;;;;;;20625;6806;314007;-73
2023/03/06 10:19:03;;;;;;;12.13;10.93;;;7.80;40.50;;;;;;20848;6806;117860;-73
2023/03/06 10:21:51;;;;;;;11.87;10.73;;;7.80;40.50;;;;;;20815;6806;121226;-73
2023/03/06 10:24:44;;;;;;;11.67;10.30;;;7.80;40.70;;;;;;20847;6806;117541;-74
2023/03/06 10:27:15;;;;;;;13.73;12.43;;;7.70;40.90;;;;;;20609;6806;311287;-73
2023/03/06 10:29:44;;;;;;;15.73;11.53;;;7.90;40.30;;;;;;20847;6806;117945;-74
2023/03/06 10:32:09;;;;;;;13.30;12.10;;;8.10;40.40;;;;;;20623;6806;307140;-73
2023/03/06 10:34:35;;;;;;;12.60;10.53;;;8.40;40.60;;;;;;20849;6806;117515;-74
2023/03/06 10:37:01;;;;;;;11.05;10.00;;;8.70;40.60;;;;;;20845;6806;117631;-74
2023/03/06 10:39:27;;;;;;;11.37;10.30;;;8.80;40.70;;;;;;20816;6806;123163;-72
2023/03/06 10:41:51;;;;;;;12.93;11.83;;;9.00;40.80;;;;;;20624;6806;307949;-74
2023/03/06 10:44:17;;;;;;;10.93;9.93;;;9.30;38.90;;;;;;20856;6806;123554;-73
2023/03/06 10:46:42;;;;;;;12.90;11.80;;;9.50;38.70;;;;;;20636;6806;306761;-73
2023/03/06 10:49:28;;;;;;;11.00;10.03;;;9.70;38.10;;;;;;20829;6806;120276;-74
2023/03/06 10:52:02;;;;;;;11.33;10.23;;;9.90;38.40;;;;;;20822;6806;117320;-73
2023/03/06 10:54:28;;;;;;;10.37;9.47;;;9.80;38.40;;;;;;20848;6806;117541;-73
2023/03/06 10:56:53;;;;;;;10.37;9.27;;;9.70;38.40;;;;;;20851;6806;117089;-73
2023/03/06 10:59:24;;;;;;;10.60;9.57;;;9.50;38.50;;;;;;20842;6806;117425;-73
2023/03/06 11:01:47;;;;;;;21.62;19.35;;;9.20;38.70;;;;;;20632;6806;307545;-73
2023/03/06 11:04:26;;;;;;;40.07;31.77;;;9.20;38.40;;;;;;20840;6806;117412;-73
2023/03/06 11:07:14;;;;;;;15.18;13.88;;;9.20;38.50;;;;;;20642;6805;308893;-73
2023/03/06 11:09:40;;;;;;;14.10;12.90;;;9.30;39.10;;;;;;20639;6806;310362;-73
2023/03/06 11:12:19;;;;;;;13.15;11.95;;;9.50;39.10;;;;;;20620;6806;277220;-73
2023/03/06 11:14:45;;;;;;;16.67;14.30;;;9.70;38.80;;;;;;20401;6806;281888;-71
2023/03/06 11:17:27;;;;;;;14.03;12.57;;;9.80;38.30;;;;;;20638;6806;281783;-75
2023/03/06 11:23:17;;;;;;;16.63;14.87;;;9.80;39.00;;;;;;20611;6806;306672;-71
2023/03/06 11:25:54;;;;;;;14.23;12.73;;;9.80;39.00;;;;;;20841;6806;117980;-71
2023/03/06 11:28:29;;;;;;;14.35;12.95;;;9.80;39.20;;;;;;20638;6806;308284;-72
2023/03/06 11:30:57;;;;;;;13.23;11.03;;;9.90;39.10;;;;;;20852;6806;124056;-71
2023/03/06 11:33:33;;;;;;;11.63;10.63;;;9.90;38.90;;;;;;20607;6806;307236;-72
2023/03/06 11:35:58;;;;;;;10.50;9.60;;;9.90;37.70;;;;;;20838;6806;117391;-71
2023/03/06 11:38:40;;;;;;;10.57;9.57;;;9.90;38.10;;;;;;20596;6806;337227;-72
2023/03/06 11:41:06;;;;;;;8.20;7.50;;;10.00;36.30;;;;;;20586;6821;119402;-74
2023/03/06 11:43:35;;;;;;;9.48;8.75;;;9.90;37.10;;;;;;20209;6821;294076;-74
2023/03/06 11:46:21;;;;;;;9.40;8.70;;;9.90;36.40;;;;;;20546;6821;337106;-73
2023/03/06 11:48:45;;;;;;;8.87;8.17;;;10.10;35.10;;;;;;20585;6821;281375;-73
2023/03/06 11:51:22;;;;;;;8.98;8.27;;;10.30;34.40;;;;;;20550;6821;277316;-74
2023/03/06 11:53:47;;;;;;;8.75;8.00;;;10.40;34.40;;;;;;20559;6824;308530;-73
2023/03/06 11:56:19;;;;;;;8.27;7.57;;;10.40;33.40;;;;;;20757;6836;117201;-73
2023/03/06 11:59:05;;;;;;;8.60;8.00;;;10.20;33.80;;;;;;20602;6821;294084;-73
2023/03/06 12:01:47;;;;;;;6.90;6.40;;;10.00;34.20;;;;;;20732;6824;118105;-75
2023/03/06 12:04:32;;;;;;;8.10;7.53;;;9.80;35.70;;;;;;20544;6836;278042;-73
2023/03/06 12:07:18;;;;;;;7.73;7.17;;;9.80;35.40;;;;;;20186;6813;119056;-71
2023/03/06 12:09:45;;;;;;;8.43;7.82;;;9.70;35.60;;;;;;20621;6813;277816;-72
2023/03/06 12:12:30;;;;;;;8.98;8.35;;;9.80;36.00;;;;;;20555;6821;307117;-73
2023/03/06 12:15:05;;;;;;;7.67;7.03;;;10.00;34.80;;;;;;20784;6824;120845;-74
2023/03/06 12:18:11;;;;;;;7.90;7.27;;;9.80;36.00;;;;;;20710;6834;119298;-73
2023/03/06 12:20:37;;;;;;;7.53;6.93;;;9.60;36.50;;;;;;20809;6820;118924;-73
2023/03/06 12:23:05;;;;;;;8.85;8.18;;;9.30;37.00;;;;;;20565;6819;309638;-72
2023/03/06 12:25:37;;;;;;;6.87;6.17;;;9.40;37.00;;;;;;20785;6812;117938;-71
2023/03/06 12:28:05;;;;;;;8.23;7.68;;;9.50;37.00;;;;;;20555;6829;294413;-71
2023/03/06 12:30:31;;;;;;;11.95;10.85;;;9.70;36.00;;;;;;20561;6823;307429;-72
2023/03/06 12:32:57;;;;;;;8.30;7.60;;;10.00;34.30;;;;;;20480;6829;311889;-72